createdAt,value
2022-11-08T00:03:56.193Z,8.7
2022-11-08T00:09:18.347Z,8.6
2022-11-08T00:14:24.121Z,8.6
2022-11-08T00:20:01.495Z,8.6
2022-11-08T00:25:38.592Z,8.6
2022-11-08T00:31:00.506Z,8.6
2022-11-08T00:36:37.010Z,8.5
2022-11-08T00:42:15.313Z,8.5
2022-11-08T00:47:52.682Z,8.5
2022-11-08T00:53:29.399Z,8.4
2022-11-08T00:59:29.238Z,8.4
2022-11-08T01:05:07.407Z,8.4
2022-11-08T01:10:28.642Z,8.4
2022-11-08T01:15:50.961Z,8.3
2022-11-08T01:26:50.384Z,8.3
2022-11-08T01:32:28.144Z,8.3
2022-11-08T01:38:06.445Z,8.3
2022-11-08T01:43:27.748Z,8.3
2022-11-08T01:48:50.483Z,8.3
2022-11-08T01:54:12.880Z,8.3
2022-11-08T01:59:48.622Z,8.3
2022-11-08T02:05:26.634Z,8.3
2022-11-08T02:10:47.771Z,8.3
2022-11-08T02:16:30.046Z,8.3
2022-11-08T02:21:52.310Z,8.3
2022-11-08T02:27:29.853Z,8.4
2022-11-08T02:32:50.604Z,8.4
2022-11-08T02:38:28.706Z,8.4
2022-11-08T02:44:05.035Z,8.4
2022-11-08T02:49:45.193Z,8.5
2022-11-08T02:55:22.611Z,8.5
2022-11-08T03:00:43.614Z,8.6
2022-11-08T03:06:21.688Z,8.6
2022-11-08T03:11:28.769Z,8.6
2022-11-08T03:17:07.277Z,8.6
2022-11-08T03:22:48.629Z,8.7
2022-11-08T03:28:26.606Z,8.8
2022-11-08T03:34:03.623Z,8.8
2022-11-08T03:39:24.302Z,8.7
2022-11-08T03:44:46.391Z,8.7
2022-11-08T03:50:23.761Z,8.7
2022-11-08T03:56:00.172Z,8.7
2022-11-08T04:01:37.817Z,8.7
2022-11-08T04:07:00.084Z,8.7
2022-11-08T04:12:37.255Z,8.7
2022-11-08T04:18:19.797Z,8.8
2022-11-08T04:23:57.930Z,8.8
2022-11-08T04:29:19.185Z,8.8
2022-11-08T04:34:41.270Z,8.8
2022-11-08T04:40:04.129Z,8.8
2022-11-08T04:45:13.697Z,8.9
2022-11-08T04:50:57.522Z,8.9
2022-11-08T04:56:34.949Z,8.9
2022-11-08T05:01:47.604Z,8.9
2022-11-08T05:07:10.712Z,8.9
2022-11-08T05:12:53.841Z,8.9
2022-11-08T05:18:16.076Z,8.9
2022-11-08T05:24:00.980Z,8.9
2022-11-08T05:29:42.024Z,8.9
2022-11-08T05:35:18.707Z,8.9
2022-11-08T05:41:05.985Z,9
2022-11-08T05:46:27.756Z,9.1
2022-11-08T05:51:48.937Z,9.2
2022-11-08T05:57:27.240Z,9.3
2022-11-08T06:03:04.755Z,9.4
2022-11-08T06:08:47.623Z,9.6
2022-11-08T06:14:28.586Z,9.7
2022-11-08T06:20:06.039Z,9.9
2022-11-08T06:25:47.483Z,10.3
2022-11-08T06:31:25.692Z,10.9
2022-11-08T06:36:50.030Z,11.3
2022-11-08T06:42:16.275Z,11.8
2022-11-08T06:47:39.828Z,12.1
2022-11-08T06:53:22.706Z,12.4
2022-11-08T06:59:04.882Z,12.8
2022-11-08T07:04:44.515Z,13.1
2022-11-08T07:10:09.203Z,13.4
2022-11-08T07:15:45.927Z,13.8
2022-11-08T07:21:24.435Z,13.9
2022-11-08T07:27:02.319Z,14
2022-11-08T07:32:41.094Z,14.1
2022-11-08T07:38:03.717Z,14.2
2022-11-08T07:44:09.160Z,14.3
2022-11-08T07:49:45.600Z,14.6
2022-11-08T07:55:27.488Z,14.9
2022-11-08T08:01:05.216Z,15.4
2022-11-08T08:06:44.064Z,16.1
2022-11-08T08:12:27.755Z,16.9
2022-11-08T08:18:05.353Z,17.8
2022-11-08T08:23:29.134Z,18.6
2022-11-08T08:29:06.980Z,19
2022-11-08T08:35:19.903Z,19.3
2022-11-08T08:41:03.873Z,19.7
2022-11-08T08:46:43.834Z,20
2022-11-08T08:52:21.265Z,20.4
2022-11-08T08:57:58.503Z,20.7
2022-11-08T09:06:09.337Z,21.3
2022-11-08T09:11:32.414Z,22
2022-11-08T09:16:56.963Z,23.1
2022-11-08T09:22:20.108Z,24.6
2022-11-08T09:27:41.721Z,25.9
2022-11-08T09:33:28.540Z,26.7
2022-11-08T09:38:58.919Z,27.3
2022-11-08T09:44:22.188Z,27.9
2022-11-08T09:49:44.466Z,28.6
2022-11-08T09:55:24.715Z,29.1
2022-11-08T10:01:02.761Z,29.9
2022-11-08T10:06:46.768Z,31.6
2022-11-08T10:12:09.690Z,33.6
2022-11-08T10:17:59.965Z,36.4
2022-11-08T10:23:22.228Z,42.6
2022-11-08T10:29:02.750Z,42.9
2022-11-08T10:34:40.111Z,35.3
2022-11-08T10:40:18.294Z,35.9
2022-11-08T10:46:01.190Z,43.9
2022-11-08T10:51:41.125Z,49.8
2022-11-08T10:57:18.715Z,45.9
2022-11-08T11:02:58.473Z,47.5
2022-11-08T11:08:37.074Z,42.6
2022-11-08T11:14:15.977Z,36.3
2022-11-08T11:19:41.333Z,34.1
2022-11-08T11:25:19.025Z,33.6
2022-11-08T11:30:56.650Z,34.2
2022-11-08T11:36:35.041Z,34.9
2022-11-08T11:42:31.477Z,35.8
2022-11-08T11:48:21.413Z,36.4
2022-11-08T11:54:05.063Z,36.8
2022-11-08T11:59:43.071Z,36.5
2022-11-08T12:05:24.675Z,42.6
2022-11-08T12:10:48.146Z,49.1
2022-11-08T12:16:30.000Z,44.4
2022-11-08T12:22:12.655Z,45.8
2022-11-08T12:27:50.652Z,47
2022-11-08T12:33:30.269Z,46.4
2022-11-08T12:39:06.683Z,46
2022-11-08T12:44:45.492Z,44.6
2022-11-08T12:50:23.073Z,45.3
2022-11-08T12:56:05.128Z,42.8
2022-11-08T13:01:44.686Z,38.8
2022-11-08T13:07:27.757Z,36.3
2022-11-08T13:13:04.709Z,34.8
2022-11-08T13:18:43.172Z,35.9
2022-11-08T13:24:44.194Z,38.3
2022-11-08T13:30:25.459Z,40.3
2022-11-08T13:35:47.921Z,41.4
2022-11-08T13:41:30.021Z,41.6
2022-11-08T13:47:07.022Z,41.2
2022-11-08T13:52:46.138Z,40.7
2022-11-08T13:58:24.417Z,39.6
2022-11-08T14:04:02.873Z,38.3
2022-11-08T14:09:49.757Z,37.1
2022-11-08T14:15:27.574Z,35.9
2022-11-08T14:21:04.585Z,34.4
2022-11-08T14:26:49.359Z,32.8
2022-11-08T14:32:33.288Z,31.1
2022-11-08T14:38:13.794Z,29.3
2022-11-08T14:43:51.816Z,27.5
2022-11-08T14:49:30.331Z,25.6
2022-11-08T14:54:58.314Z,23.9
2022-11-08T15:00:36.460Z,22.4
2022-11-08T15:11:37.255Z,19.9
2022-11-08T15:17:20.689Z,18.9
2022-11-08T15:22:58.308Z,18
2022-11-08T15:28:37.523Z,17.2
2022-11-08T15:34:20.835Z,16.4
2022-11-08T15:39:47.201Z,15.8
2022-11-08T15:45:08.884Z,15.3
2022-11-08T15:50:47.020Z,14.8
2022-11-08T15:56:24.670Z,14.3
2022-11-08T16:02:02.913Z,13.9
2022-11-08T16:07:25.811Z,13.4
2022-11-08T16:13:08.457Z,13.1
2022-11-08T16:18:36.043Z,12.8
2022-11-08T16:24:19.847Z,12.5
2022-11-08T16:29:41.649Z,12.3
2022-11-08T16:35:19.031Z,12.1
2022-11-08T16:40:41.432Z,11.9
2022-11-08T16:46:37.107Z,11.8
2022-11-08T16:52:15.759Z,11.6
2022-11-08T16:58:24.196Z,11.6
2022-11-08T17:03:46.890Z,11.4
2022-11-08T17:09:14.495Z,11.4
2022-11-08T17:14:52.991Z,11.3
2022-11-08T17:20:37.109Z,11.2
2022-11-08T17:26:52.348Z,11.1
2022-11-08T17:32:29.966Z,11.1
2022-11-08T17:38:09.545Z,11.1
2022-11-08T17:43:50.670Z,11.1
2022-11-08T17:49:28.868Z,11
2022-11-08T17:55:10.323Z,10.9
2022-11-08T18:00:31.463Z,10.8
2022-11-08T18:06:11.665Z,10.8
2022-11-08T18:11:53.818Z,10.6
2022-11-08T18:17:20.257Z,10.6
2022-11-08T18:22:27.572Z,10.5
2022-11-08T18:27:55.922Z,10.4
2022-11-08T18:33:38.926Z,10.4
2022-11-08T18:39:19.613Z,10.3
2022-11-08T18:44:58.138Z,10.2
2022-11-08T18:50:42.285Z,10.1
2022-11-08T18:56:19.549Z,10.1
2022-11-08T19:02:02.467Z,10
2022-11-08T19:07:12.414Z,9.9
2022-11-08T19:12:50.057Z,9.9
2022-11-08T19:18:11.997Z,9.9
2022-11-08T19:23:48.547Z,9.8
2022-11-08T19:29:28.800Z,9.8
2022-11-08T19:34:51.452Z,9.7
2022-11-08T19:40:33.538Z,9.6
2022-11-08T19:45:41.087Z,9.5
2022-11-08T19:51:03.733Z,9.4
2022-11-08T19:56:09.594Z,9.2
2022-11-08T20:01:54.988Z,9.1
2022-11-08T20:07:18.195Z,9
2022-11-08T20:12:41.148Z,8.8
2022-11-08T20:17:49.497Z,8.7
2022-11-08T20:23:27.681Z,8.6
2022-11-08T20:28:56.142Z,8.6
2022-11-08T20:34:38.526Z,8.6
2022-11-08T20:40:04.114Z,8.6
2022-11-08T20:45:31.791Z,8.6
2022-11-08T20:51:19.530Z,8.5
2022-11-08T20:57:02.398Z,8.4
2022-11-08T21:03:00.286Z,8.4
2022-11-08T21:11:17.698Z,8.3
2022-11-08T21:17:20.000Z,8.2
2022-11-08T21:30:06.039Z,7.9
2022-11-08T21:35:44.936Z,7.8
2022-11-08T21:41:21.466Z,7.6
2022-11-08T21:47:03.480Z,7.6
2022-11-08T21:52:46.802Z,7.5
2022-11-08T21:58:30.321Z,7.4
2022-11-08T22:03:37.643Z,7.4
2022-11-08T22:09:06.719Z,7.4
2022-11-08T22:14:43.474Z,7.3
2022-11-08T22:20:28.107Z,7.2
2022-11-08T22:25:34.943Z,7.1
2022-11-08T22:30:40.995Z,7
2022-11-08T22:36:03.104Z,6.9
2022-11-08T22:41:29.908Z,6.8
2022-11-08T22:46:51.538Z,6.7
2022-11-08T22:52:17.234Z,6.6
2022-11-08T22:57:08.696Z,6.6
2022-11-08T23:01:59.726Z,6.6
2022-11-08T23:07:23.089Z,6.6
2022-11-08T23:12:30.341Z,6.6
2022-11-08T23:17:52.348Z,6.7
2022-11-08T23:23:14.538Z,6.6
2022-11-08T23:28:24.213Z,6.6
2022-11-08T23:33:15.217Z,6.6
2022-11-08T23:38:40.201Z,6.6
2022-11-08T23:44:02.074Z,6.6
2022-11-08T23:49:23.251Z,6.5
2022-11-08T23:54:29.619Z,6.4
